createdAt,value
2023-01-18T00:00:37.659Z,93653.41
2023-01-18T00:03:08.721Z,93656.66
2023-01-18T00:05:39.891Z,93654.75
2023-01-18T00:08:09.491Z,93658.31
2023-01-18T00:10:37.361Z,93652.31
2023-01-18T00:13:05.740Z,93657.63
2023-01-18T00:15:33.945Z,93652.44
2023-01-18T00:18:02.007Z,93656.00
2023-01-18T00:20:32.007Z,93656.00
2023-01-18T00:23:01.034Z,93649.03
2023-01-18T00:25:31.312Z,93645.31
2023-01-18T00:27:59.535Z,93646.84
2023-01-18T00:30:29.588Z,93651.88
2023-01-18T00:32:59.917Z,93650.13
2023-01-18T00:35:28.933Z,93651.34
2023-01-18T00:37:57.117Z,93654.75
2023-01-18T00:40:28.873Z,93656.66
2023-01-18T00:43:15.996Z,93661.47
2023-01-18T00:45:44.222Z,93656.41
2023-01-18T00:48:12.021Z,93659.94
2023-01-18T00:50:39.860Z,93661.44
2023-01-18T00:53:07.675Z,93666.94
2023-01-18T00:55:35.571Z,93663.50
2023-01-18T00:58:04.732Z,93663.50
2023-01-18T01:00:33.532Z,93665.31
2023-01-18T01:03:01.794Z,93659.13
2023-01-18T01:05:47.269Z,93668.03
2023-01-18T01:08:17.871Z,93658.84
2023-01-18T01:10:47.209Z,93662.00
2023-01-18T01:13:36.207Z,93659.41
2023-01-18T01:16:24.342Z,93672.53
2023-01-18T01:19:10.193Z,93675.00
2023-01-18T01:21:55.429Z,93675.94
2023-01-18T01:24:40.760Z,93681.94
2023-01-18T01:27:08.610Z,93675.25
2023-01-18T01:29:38.281Z,93680.31
2023-01-18T01:32:06.670Z,93686.59
2023-01-18T01:34:34.763Z,93694.81
2023-01-18T01:37:02.711Z,93689.91
2023-01-18T01:39:30.741Z,93694.69
2023-01-18T01:41:58.818Z,93686.22
2023-01-18T01:44:50.220Z,93691.38
2023-01-18T01:47:33.870Z,93692.50
2023-01-18T01:50:08.640Z,93691.09
2023-01-18T01:52:40.037Z,93689.59
2023-01-18T01:55:12.239Z,93691.94
2023-01-18T01:57:44.379Z,93691.81
2023-01-18T02:00:19.567Z,93700.41
2023-01-18T02:02:51.930Z,93698.50
2023-01-18T02:05:20.568Z,93712.28
2023-01-18T02:07:49.031Z,93710.78
2023-01-18T02:10:17.130Z,93707.78
2023-01-18T02:12:48.112Z,93704.22
2023-01-18T02:15:20.006Z,93708.47
2023-01-18T02:18:06.440Z,93718.19
2023-01-18T02:21:02.466Z,93714.88
2023-01-18T02:23:38.999Z,93717.59
2023-01-18T02:26:42.264Z,93721.75
2023-01-18T02:29:17.533Z,93721.75
2023-01-18T02:31:57.999Z,93719.78
2023-01-18T02:34:40.133Z,93729.25
2023-01-18T02:37:14.854Z,93727.84
2023-01-18T02:39:53.698Z,93732.22
2023-01-18T02:42:43.067Z,93732.47
2023-01-18T02:45:35.912Z,93738.81
2023-01-18T02:48:05.453Z,93744.41
2023-01-18T02:50:33.920Z,93753.81
2023-01-18T02:53:01.772Z,93752.31
2023-01-18T02:55:41.207Z,93751.81
2023-01-18T02:58:15.575Z,93756.53
2023-01-18T03:00:50.274Z,93763.25
2023-01-18T03:03:21.978Z,93758.31
2023-01-18T03:05:55.576Z,93752.69
2023-01-18T03:08:32.270Z,93751.50
2023-01-18T03:11:03.727Z,93753.00
2023-01-18T03:13:47.850Z,93752.19
2023-01-18T03:16:22.692Z,93753.69
2023-01-18T03:19:03.443Z,93745.84
2023-01-18T03:21:38.945Z,93751.03
2023-01-18T03:24:09.856Z,93753.63
2023-01-18T03:26:42.447Z,93751.50
2023-01-18T03:29:30.518Z,93750.09
2023-01-18T03:32:24.853Z,93752.00
2023-01-18T03:34:55.585Z,93751.19
2023-01-18T03:37:29.226Z,93741.19
2023-01-18T03:40:02.682Z,93745.69
2023-01-18T03:42:36.203Z,93748.97
2023-01-18T03:45:09.783Z,93751.69
2023-01-18T03:47:40.485Z,93761.25
2023-01-18T03:50:10.708Z,93761.97
2023-01-18T03:52:43.303Z,93767.53
2023-01-18T03:55:17.166Z,93778.75
2023-01-18T03:57:50.392Z,93777.53
2023-01-18T04:00:19.407Z,93780.16
2023-01-18T04:02:50.578Z,93789.41
2023-01-18T04:05:19.401Z,93802.13
2023-01-18T04:07:47.334Z,93794.91
2023-01-18T04:10:15.473Z,93807.84
2023-01-18T04:12:44.062Z,93803.63
2023-01-18T04:15:14.962Z,93806.38
2023-01-18T04:17:44.403Z,93811.56
2023-01-18T04:20:13.805Z,93812.69
2023-01-18T04:22:41.985Z,93812.50
2023-01-18T04:25:11.943Z,93822.50
2023-01-18T04:27:39.801Z,93825.69
2023-01-18T04:30:10.155Z,93827.97
2023-01-18T04:32:37.949Z,93825.81
2023-01-18T04:35:07.173Z,93827.16
2023-01-18T04:37:38.222Z,93831.66
2023-01-18T04:40:07.012Z,93835.88
2023-01-18T04:42:35.133Z,93828.63
2023-01-18T04:45:02.959Z,93828.78
2023-01-18T04:47:30.835Z,93837.78
2023-01-18T04:49:58.632Z,93841.97
2023-01-18T04:52:26.945Z,93845.94
2023-01-18T04:54:56.238Z,93854.09
2023-01-18T04:57:24.087Z,93856.25
2023-01-18T04:59:51.882Z,93859.44
2023-01-18T05:02:19.801Z,93862.47
2023-01-18T05:04:47.974Z,93865.34
2023-01-18T05:07:16.419Z,93872.88
2023-01-18T05:09:44.255Z,93883.88
2023-01-18T05:12:13.621Z,93891.09
2023-01-18T05:14:42.146Z,93899.25
2023-01-18T05:17:10.832Z,93902.88
2023-01-18T05:19:40.507Z,93905.41
2023-01-18T05:22:08.496Z,93910.34
2023-01-18T05:24:37.169Z,93912.44
2023-01-18T05:27:05.216Z,93916.97
2023-01-18T05:29:34.510Z,93922.88
2023-01-18T05:32:02.396Z,93931.00
2023-01-18T05:34:30.562Z,93935.31
2023-01-18T05:36:58.819Z,93941.00
2023-01-18T05:39:27.022Z,93952.06
2023-01-18T05:41:54.808Z,93944.19
2023-01-18T05:44:22.645Z,93954.94
2023-01-18T05:46:54.742Z,93951.59
2023-01-18T05:49:23.367Z,93955.88
2023-01-18T05:51:52.009Z,93964.72
2023-01-18T05:54:21.137Z,93970.28
2023-01-18T05:56:49.455Z,93974.78
2023-01-18T05:59:17.515Z,93978.91
2023-01-18T06:01:46.076Z,93996.34
2023-01-18T06:04:15.335Z,93990.81
2023-01-18T06:06:43.223Z,94005.66
2023-01-18T06:09:11.006Z,94011.94
2023-01-18T06:11:39.038Z,94021.75
2023-01-18T06:14:06.945Z,94029.41
2023-01-18T06:16:35.667Z,94034.25
2023-01-18T06:19:03.592Z,94033.41
2023-01-18T06:21:32.800Z,94043.91
2023-01-18T06:24:01.143Z,94053.38
2023-01-18T06:26:31.210Z,94052.41
2023-01-18T06:28:59.253Z,94053.81
2023-01-18T06:31:27.117Z,94058.91
2023-01-18T06:33:54.988Z,94062.44
2023-01-18T06:36:22.831Z,94065.72
2023-01-18T06:38:52.113Z,94066.81
2023-01-18T06:41:21.305Z,94067.88
2023-01-18T06:43:51.302Z,94075.53
2023-01-18T06:46:19.656Z,94083.78
2023-01-18T06:48:47.821Z,94085.06
2023-01-18T06:51:15.670Z,94093.81
2023-01-18T06:53:45.684Z,94100.66
2023-01-18T06:56:15.672Z,94102.31
2023-01-18T06:58:44.776Z,94116.00
2023-01-18T07:01:14.554Z,94117.53
2023-01-18T07:03:42.496Z,94118.13
2023-01-18T07:06:10.389Z,94116.47
2023-01-18T07:08:40.069Z,94128.38
2023-01-18T07:11:09.422Z,94126.84
2023-01-18T07:13:41.051Z,94135.34
2023-01-18T07:16:17.996Z,94143.13
2023-01-18T07:18:48.405Z,94142.88
2023-01-18T07:21:18.025Z,94148.22
2023-01-18T07:23:46.663Z,94149.13
2023-01-18T07:26:16.616Z,94156.47
2023-01-18T07:28:49.510Z,94157.63
2023-01-18T07:31:20.200Z,94165.41
2023-01-18T07:33:49.272Z,94164.47
2023-01-18T07:36:18.307Z,94173.09
2023-01-18T07:38:47.404Z,94184.28
2023-01-18T07:41:17.071Z,94189.81
2023-01-18T07:43:47.451Z,94198.91
2023-01-18T07:46:18.524Z,94206.44
2023-01-18T07:48:46.388Z,94199.84
2023-01-18T07:51:14.408Z,94217.19
2023-01-18T07:53:42.468Z,94218.69
2023-01-18T07:56:14.737Z,94217.19
2023-01-18T07:58:43.000Z,94217.28
2023-01-18T08:01:15.146Z,94226.63
2023-01-18T08:03:44.383Z,94244.16
2023-01-18T08:06:13.952Z,94242.91
2023-01-18T08:08:42.067Z,94241.88
2023-01-18T08:11:10.564Z,94241.56
2023-01-18T08:13:38.837Z,94257.25
2023-01-18T08:16:11.117Z,94253.03
2023-01-18T08:18:41.905Z,94256.94
2023-01-18T08:21:12.323Z,94274.28
2023-01-18T08:23:40.618Z,94267.31
2023-01-18T08:26:09.761Z,94285.13
2023-01-18T08:28:38.032Z,94282.28
2023-01-18T08:31:09.625Z,94286.91
2023-01-18T08:33:46.099Z,94288.06
2023-01-18T08:36:16.612Z,94295.41
2023-01-18T08:38:49.744Z,94300.13
2023-01-18T08:41:18.188Z,94310.16
2023-01-18T08:43:51.189Z,94321.66
2023-01-18T08:46:20.372Z,94320.09
2023-01-18T08:48:52.004Z,94327.72
2023-01-18T08:51:22.908Z,94339.63
2023-01-18T08:53:54.388Z,94340.47
2023-01-18T08:56:22.338Z,94350.34
2023-01-18T08:58:52.485Z,94347.69
2023-01-18T09:01:23.244Z,94356.53
2023-01-18T09:03:55.201Z,94361.97
2023-01-18T09:06:24.509Z,94357.94
2023-01-18T09:08:53.059Z,94362.88
2023-01-18T09:11:20.863Z,94366.25
2023-01-18T09:14:00.311Z,94373.84
2023-01-18T09:16:29.541Z,94377.94
2023-01-18T09:18:59.081Z,94384.41
2023-01-18T09:21:29.063Z,94391.97
2023-01-18T09:23:57.246Z,94388.06
2023-01-18T09:26:25.488Z,94397.59
2023-01-18T09:28:54.471Z,94401.25
2023-01-18T09:31:24.190Z,94405.00
2023-01-18T09:33:53.869Z,94415.38
2023-01-18T09:36:26.842Z,94426.25
2023-01-18T09:38:55.337Z,94423.56
2023-01-18T09:41:31.422Z,94422.28
2023-01-18T09:44:02.500Z,94434.97
2023-01-18T09:46:35.383Z,94440.69
2023-01-18T09:49:06.103Z,94447.03
2023-01-18T09:51:44.298Z,94444.59
2023-01-18T09:54:34.417Z,94448.69
2023-01-18T09:57:09.854Z,94447.63
2023-01-18T09:59:43.480Z,94460.69
2023-01-18T10:02:20.491Z,94461.31
2023-01-18T10:04:53.993Z,94459.78
2023-01-18T10:07:27.283Z,94461.78
2023-01-18T10:09:57.690Z,94470.25
2023-01-18T10:12:34.824Z,94473.25
2023-01-18T10:15:07.790Z,94468.91
2023-01-18T10:17:39.984Z,94472.75
2023-01-18T10:20:16.145Z,94475.31
2023-01-18T10:22:52.087Z,94477.41
2023-01-18T10:25:31.781Z,94478.69
2023-01-18T10:28:33.123Z,94483.47
2023-01-18T10:31:24.936Z,94485.69
2023-01-18T10:33:57.018Z,94489.78
2023-01-18T10:36:32.391Z,94488.41
2023-01-18T10:39:05.915Z,94492.94
2023-01-18T10:41:38.562Z,94496.00
2023-01-18T10:44:06.686Z,94493.41
2023-01-18T10:46:34.623Z,94498.88
2023-01-18T10:49:02.624Z,94506.34
2023-01-18T10:51:35.106Z,94504.47
2023-01-18T10:54:23.179Z,94510.47
2023-01-18T10:57:02.200Z,94516.91
2023-01-18T10:59:37.462Z,94524.63
2023-01-18T11:02:06.123Z,94524.63
2023-01-18T11:04:35.038Z,94525.09
2023-01-18T11:07:04.861Z,94524.03
2023-01-18T11:09:48.411Z,94532.78
2023-01-18T11:12:37.977Z,94529.28
2023-01-18T11:15:24.766Z,94536.38
2023-01-18T11:18:20.455Z,94542.44
2023-01-18T11:20:50.505Z,94545.94
2023-01-18T11:23:26.298Z,94549.09
2023-01-18T11:26:00.666Z,94552.38
2023-01-18T11:28:36.098Z,94553.81
2023-01-18T11:31:10.358Z,94556.31
2023-01-18T11:33:43.018Z,94557.22
2023-01-18T11:36:11.013Z,94566.81
2023-01-18T11:38:39.673Z,94567.59
2023-01-18T11:41:20.702Z,94565.25
2023-01-18T11:44:03.789Z,94566.31
2023-01-18T11:46:39.039Z,94572.00
2023-01-18T11:49:22.880Z,94568.81
2023-01-18T11:51:56.696Z,94572.00
2023-01-18T11:54:28.975Z,94574.28
2023-01-18T11:57:02.299Z,94573.69
2023-01-18T11:59:33.985Z,94577.50
2023-01-18T12:02:35.686Z,94583.69
2023-01-18T12:05:22.487Z,94582.78
2023-01-18T12:08:02.563Z,94591.78
2023-01-18T12:10:39.115Z,94591.41
2023-01-18T12:13:25.252Z,94597.16
2023-01-18T12:16:03.591Z,94597.31
2023-01-18T12:18:49.561Z,94599.91
2023-01-18T12:21:23.371Z,94607.94
2023-01-18T12:24:17.045Z,94615.16
2023-01-18T12:26:51.420Z,94623.38
2023-01-18T12:29:55.578Z,94626.25
2023-01-18T12:32:41.942Z,94621.84
2023-01-18T12:35:26.808Z,94631.91
2023-01-18T12:38:06.362Z,94639.69
2023-01-18T12:40:51.678Z,94637.91
2023-01-18T12:43:35.557Z,94638.41
2023-01-18T12:46:10.411Z,94639.13
2023-01-18T12:48:48.116Z,94635.09
2023-01-18T12:51:18.386Z,94649.69
2023-01-18T12:53:50.325Z,94644.00
2023-01-18T12:56:26.081Z,94653.19
2023-01-18T12:59:00.692Z,94653.19
2023-01-18T13:01:36.396Z,94656.59
2023-01-18T13:04:14.918Z,94661.97
2023-01-18T13:06:45.868Z,94663.03
2023-01-18T13:09:19.794Z,94660.31
2023-01-18T13:11:49.210Z,94657.72
2023-01-18T13:14:22.411Z,94665.06
2023-01-18T13:17:01.217Z,94674.25
2023-01-18T13:19:37.290Z,94668.28
2023-01-18T13:22:14.022Z,94677.56
2023-01-18T13:24:56.780Z,94678.13
2023-01-18T13:27:24.976Z,94683.25
2023-01-18T13:29:54.277Z,94690.94
2023-01-18T13:32:31.810Z,94688.56
2023-01-18T13:35:18.943Z,94699.00
2023-01-18T13:37:49.403Z,94695.34
2023-01-18T13:40:31.865Z,94698.81
2023-01-18T13:42:59.750Z,94696.63
2023-01-18T13:45:29.819Z,94714.22
2023-01-18T13:48:03.413Z,94721.56
2023-01-18T13:50:40.919Z,94726.75
2023-01-18T13:53:23.205Z,94738.53
2023-01-18T13:56:22.250Z,94751.19
2023-01-18T13:59:05.134Z,94750.59
2023-01-18T14:01:37.831Z,94757.44
2023-01-18T14:04:16.039Z,94759.00
2023-01-18T14:06:46.534Z,94753.81
2023-01-18T14:09:18.383Z,94758.06
2023-01-18T14:11:54.702Z,94764.28
2023-01-18T14:14:29.234Z,94763.91
2023-01-18T14:17:00.570Z,94775.53
2023-01-18T14:19:32.569Z,94779.78
2023-01-18T14:22:23.106Z,94787.50
2023-01-18T14:25:11.323Z,94789.69
2023-01-18T14:27:42.674Z,94796.97
2023-01-18T14:30:19.715Z,94801.22
2023-01-18T14:32:59.175Z,94809.72
2023-01-18T14:35:28.680Z,94807.44
2023-01-18T14:38:17.353Z,94816.91
2023-01-18T14:40:48.981Z,94816.16
2023-01-18T14:43:24.768Z,94818.69
2023-01-18T14:45:57.004Z,94823.75
2023-01-18T14:51:10.266Z,94829.78
2023-01-18T14:53:46.444Z,94837.19
2023-01-18T14:56:19.997Z,94839.47
2023-01-18T14:58:53.639Z,94840.19
2023-01-18T15:01:28.306Z,94854.00
2023-01-18T15:03:57.013Z,94855.78
2023-01-18T15:06:35.741Z,94851.84
2023-01-18T15:09:07.101Z,94852.88
2023-01-18T15:11:37.414Z,94867.84
2023-01-18T15:14:10.561Z,94868.47
2023-01-18T15:16:38.484Z,94873.66
2023-01-18T15:19:35.586Z,94887.59
2023-01-18T15:22:07.615Z,94895.28
2023-01-18T15:24:40.414Z,94894.03
2023-01-18T15:27:13.396Z,94895.91
2023-01-18T15:29:46.846Z,94905.78
2023-01-18T15:32:17.690Z,94893.28
2023-01-18T15:34:47.676Z,94905.38
2023-01-18T15:37:22.935Z,94902.03
2023-01-18T15:39:56.599Z,94906.28
2023-01-18T15:42:29.290Z,94912.66
2023-01-18T15:44:59.494Z,94922.19
2023-01-18T15:47:29.777Z,94923.06
2023-01-18T15:50:00.028Z,94931.84
2023-01-18T15:52:45.503Z,94930.13
2023-01-18T15:55:24.070Z,94938.72
2023-01-18T15:58:00.076Z,94943.09
2023-01-18T16:00:31.209Z,94939.66
2023-01-18T16:02:59.498Z,94934.56
2023-01-18T16:05:28.615Z,94943.19
2023-01-18T16:08:20.492Z,94951.09
2023-01-18T16:10:51.481Z,94959.91
2023-01-18T16:13:33.457Z,94960.97
2023-01-18T16:16:21.345Z,94967.41
2023-01-18T16:18:52.824Z,94969.59
2023-01-18T16:21:30.678Z,94969.59
2023-01-18T16:24:00.084Z,94969.59
2023-01-18T16:26:31.422Z,94974.06
2023-01-18T16:29:07.870Z,94976.56
2023-01-18T16:31:36.571Z,94977.59
2023-01-18T16:34:23.926Z,94980.91
2023-01-18T16:36:53.151Z,94985.16
2023-01-18T16:39:24.105Z,94988.81
2023-01-18T16:41:57.422Z,94989.84
2023-01-18T16:44:25.566Z,94997.75
2023-01-18T16:46:53.916Z,95002.97
2023-01-18T16:49:21.792Z,94997.63
2023-01-18T16:51:50.617Z,95003.56
2023-01-18T16:54:18.660Z,95009.81
2023-01-18T16:56:47.869Z,95013.53
2023-01-18T16:59:18.196Z,95016.78
2023-01-18T17:01:46.892Z,95017.59
2023-01-18T17:04:15.205Z,95025.78
2023-01-18T17:06:44.076Z,95027.56
2023-01-18T17:09:20.612Z,95032.13
2023-01-18T17:11:50.223Z,95037.22
2023-01-18T17:14:18.496Z,95034.06
2023-01-18T17:16:47.541Z,95037.72
2023-01-18T17:19:17.099Z,95039.56
2023-01-18T17:21:46.924Z,95043.84
2023-01-18T17:24:15.494Z,95044.44
2023-01-18T17:26:43.867Z,95050.66
2023-01-18T17:29:17.877Z,95057.41
2023-01-18T17:31:52.184Z,95057.72
2023-01-18T17:34:27.408Z,95061.50
2023-01-18T17:36:57.162Z,95065.97
2023-01-18T17:39:32.076Z,95080.16
2023-01-18T17:42:16.347Z,95074.72
2023-01-18T17:44:45.919Z,95081.47
2023-01-18T17:47:13.810Z,95091.13
2023-01-18T17:49:42.135Z,95095.78
2023-01-18T17:52:10.065Z,95106.53
2023-01-18T17:54:37.870Z,95110.34
2023-01-18T17:57:05.733Z,95109.66
2023-01-18T17:59:33.597Z,95108.97
2023-01-18T18:02:03.014Z,95116.53
2023-01-18T18:04:31.592Z,95122.19
2023-01-18T18:06:59.680Z,95132.75
2023-01-18T18:09:27.631Z,95136.53
2023-01-18T18:11:55.542Z,95137.72
2023-01-18T18:14:23.425Z,95136.91
2023-01-18T18:16:51.831Z,95140.69
2023-01-18T18:19:21.098Z,95155.50
2023-01-18T18:21:48.932Z,95159.03
2023-01-18T18:24:16.846Z,95154.00
2023-01-18T18:26:44.662Z,95159.94
2023-01-18T18:29:12.439Z,95163.28
2023-01-18T18:31:40.345Z,95169.41
2023-01-18T18:34:08.700Z,95177.00
2023-01-18T18:36:38.233Z,95179.69
2023-01-18T18:39:06.721Z,95176.25
2023-01-18T18:41:34.491Z,95176.53
2023-01-18T18:44:02.788Z,95187.72
2023-01-18T18:46:30.901Z,95198.34
2023-01-18T18:48:58.772Z,95191.50
2023-01-18T18:51:26.835Z,95192.34
2023-01-18T18:53:56.483Z,95203.72
2023-01-18T18:56:24.409Z,95207.22
2023-01-18T18:58:52.242Z,95218.63
2023-01-18T19:01:22.239Z,95220.47
2023-01-18T19:03:50.951Z,95218.78
2023-01-18T19:06:20.074Z,95230.09
2023-01-18T19:08:48.326Z,95234.69
2023-01-18T19:11:17.728Z,95234.34
2023-01-18T19:13:48.515Z,95236.19
2023-01-18T19:16:16.818Z,95243.13
2023-01-18T19:18:44.878Z,95250.25
2023-01-18T19:21:12.711Z,95241.75
2023-01-18T19:23:40.695Z,95252.09
2023-01-18T19:26:08.686Z,95251.44
2023-01-18T19:28:38.374Z,95255.72
2023-01-18T19:31:07.781Z,95259.28
2023-01-18T19:33:36.772Z,95264.63
2023-01-18T19:36:09.994Z,95257.88
2023-01-18T19:38:45.815Z,95257.94
2023-01-18T19:41:15.018Z,95265.66
2023-01-18T19:43:44.832Z,95265.56
2023-01-18T19:46:15.232Z,95275.19
2023-01-18T19:48:43.645Z,95279.69
2023-01-18T19:51:21.827Z,95275.38
2023-01-18T19:53:51.204Z,95280.03
2023-01-18T19:56:19.274Z,95285.38
2023-01-18T19:58:49.903Z,95283.72
2023-01-18T20:01:34.655Z,95289.81
2023-01-18T20:04:04.782Z,95295.97
2023-01-18T20:06:32.849Z,95291.97
2023-01-18T20:09:00.737Z,95306.84
2023-01-18T20:11:28.903Z,95305.19
2023-01-18T20:13:58.054Z,95312.34
2023-01-18T20:16:26.120Z,95314.25
2023-01-18T20:18:54.409Z,95319.53
2023-01-18T20:21:22.336Z,95313.44
2023-01-18T20:23:50.420Z,95316.09
2023-01-18T20:26:31.103Z,95326.63
2023-01-18T20:29:06.350Z,95331.03
2023-01-18T20:31:34.618Z,95327.94
2023-01-18T20:34:03.018Z,95334.63
2023-01-18T20:36:30.898Z,95338.28
2023-01-18T20:38:58.747Z,95336.81
2023-01-18T20:41:26.553Z,95341.22
2023-01-18T20:43:54.437Z,95346.69
2023-01-18T20:46:23.616Z,95347.78
2023-01-18T20:48:51.551Z,95354.47
2023-01-18T20:51:19.447Z,95350.22
2023-01-18T20:53:47.347Z,95357.22
2023-01-18T20:56:28.339Z,95355.56
2023-01-18T20:58:57.901Z,95362.47
2023-01-18T21:01:32.114Z,95369.63
2023-01-18T21:04:01.365Z,95357.69
2023-01-18T21:06:29.723Z,95366.38
2023-01-18T21:08:59.399Z,95373.22
2023-01-18T21:11:27.627Z,95380.81
2023-01-18T21:13:56.433Z,95380.06
2023-01-18T21:16:24.595Z,95383.66
2023-01-18T21:18:56.061Z,95384.63
2023-01-18T21:21:24.251Z,95396.69
2023-01-18T21:23:52.205Z,95394.09
2023-01-18T21:26:20.192Z,95389.69
2023-01-18T21:28:48.207Z,95380.63
2023-01-18T21:31:16.129Z,95393.63
2023-01-18T21:33:44.136Z,95391.19
2023-01-18T21:36:15.959Z,95392.09
2023-01-18T21:38:44.014Z,95394.84
2023-01-18T21:41:29.879Z,95395.78
2023-01-18T21:44:15.181Z,95395.91
2023-01-18T21:46:45.661Z,95401.22
2023-01-18T21:49:51.967Z,95399.56
2023-01-18T21:52:40.384Z,95412.56
2023-01-18T21:55:08.835Z,95416.91
2023-01-18T21:57:37.500Z,95418.75
2023-01-18T22:00:07.294Z,95418.03
2023-01-18T22:02:35.925Z,95426.78
2023-01-18T22:05:04.645Z,95428.59
2023-01-18T22:07:35.268Z,95422.53
2023-01-18T22:10:06.471Z,95424.34
2023-01-18T22:12:38.781Z,95436.38
2023-01-18T22:15:07.897Z,95434.09
2023-01-18T22:17:35.851Z,95435.97
2023-01-18T22:20:04.537Z,95441.16
2023-01-18T22:22:33.671Z,95451.66
2023-01-18T22:25:02.372Z,95447.53
2023-01-18T22:27:30.807Z,95451.91
2023-01-18T22:29:58.755Z,95452.22
2023-01-18T22:32:26.844Z,95462.69
2023-01-18T22:34:54.726Z,95464.44
2023-01-18T22:37:23.443Z,95462.78
2023-01-18T22:39:52.647Z,95464.59
2023-01-18T22:42:20.521Z,95472.63
2023-01-18T22:44:48.546Z,95476.28
2023-01-18T22:47:16.388Z,95473.75
2023-01-18T22:49:44.207Z,95473.03
2023-01-18T22:52:12.021Z,95480.94
2023-01-18T22:54:40.065Z,95479.41
2023-01-18T22:57:09.275Z,95482.97
2023-01-18T22:59:37.163Z,95493.19
2023-01-18T23:02:05.017Z,95479.41
2023-01-18T23:04:34.320Z,95485.50
2023-01-18T23:07:02.239Z,95491.59
2023-01-18T23:09:30.323Z,95484.09
2023-01-18T23:11:58.174Z,95495.56
2023-01-18T23:14:44.740Z,95493.72
2023-01-18T23:17:30.702Z,95491.22
2023-01-18T23:19:58.527Z,95493.03
2023-01-18T23:22:26.463Z,95497.41
2023-01-18T23:24:54.339Z,95498.34
2023-01-18T23:27:22.199Z,95501.19
2023-01-18T23:29:56.581Z,95510.09
2023-01-18T23:32:27.236Z,95507.56
2023-01-18T23:34:55.740Z,95510.28
2023-01-18T23:37:24.128Z,95517.28
2023-01-18T23:40:09.860Z,95522.38
2023-01-18T23:42:55.578Z,95527.03
2023-01-18T23:45:42.105Z,95523.81
2023-01-18T23:48:30.539Z,95528.97
2023-01-18T23:51:15.991Z,95520.19
2023-01-18T23:54:01.189Z,95522.69
2023-01-18T23:56:28.997Z,95522.88
2023-01-18T23:58:57.533Z,95524.53
